createdAt,value
2022-07-30T00:02:18.034Z,100276.53
2022-07-30T00:07:20.746Z,100276.34
2022-07-30T00:12:23.452Z,100264.69
2022-07-30T00:17:27.740Z,100262.72
2022-07-30T00:22:31.705Z,100265.78
2022-07-30T00:27:35.286Z,100258.13
2022-07-30T00:32:39.384Z,100264.16
2022-07-30T00:37:42.155Z,100262.34
2022-07-30T00:42:45.925Z,100255.53
2022-07-30T00:47:50.052Z,100253.31
2022-07-30T00:52:52.791Z,100260.88
2022-07-30T00:57:55.571Z,100265.63
2022-07-30T01:02:59.851Z,100271.22
2022-07-30T01:08:02.706Z,100266.25
2022-07-30T01:13:05.377Z,100269.44
2022-07-30T01:19:03.427Z,100266.75
2022-07-30T01:24:13.122Z,100259.25
2022-07-30T01:29:17.321Z,100262.44
2022-07-30T01:34:21.113Z,100265.44
2022-07-30T01:39:23.844Z,100243.94
2022-07-30T01:44:28.558Z,100258.66
2022-07-30T01:49:31.418Z,100259.13
2022-07-30T01:54:34.812Z,100276.66
2022-07-30T01:59:39.033Z,100268.00
2022-07-30T02:04:41.784Z,100254.50
2022-07-30T02:09:52.254Z,100242.94
2022-07-30T02:15:03.439Z,100231.59
2022-07-30T02:20:09.921Z,100233.94
2022-07-30T02:25:15.092Z,100236.94
2022-07-30T02:30:19.148Z,100236.25
2022-07-30T02:35:23.741Z,100263.47
2022-07-30T02:40:26.598Z,100266.19
2022-07-30T02:45:30.806Z,100261.09
2022-07-30T02:50:33.926Z,100266.34
2022-07-30T02:55:37.042Z,100270.91
2022-07-30T03:00:41.418Z,100280.16
2022-07-30T03:05:44.824Z,100286.75
2022-07-30T03:10:47.606Z,100290.63
2022-07-30T03:15:52.151Z,100286.22
2022-07-30T03:20:57.786Z,100290.38
2022-07-30T03:26:01.702Z,100291.38
2022-07-30T03:31:06.837Z,100277.00
2022-07-30T03:36:10.017Z,100253.66
2022-07-30T03:41:13.048Z,100235.91
2022-07-30T03:46:19.003Z,100237.03
2022-07-30T03:51:25.099Z,100249.88
2022-07-30T03:56:29.676Z,100233.97
2022-07-30T04:01:40.423Z,100226.28
2022-07-30T04:07:01.155Z,100201.44
2022-07-30T04:12:05.474Z,100188.75
2022-07-30T04:17:13.229Z,100187.06
2022-07-30T04:22:18.284Z,100194.44
2022-07-30T04:27:21.862Z,100191.63
2022-07-30T04:32:26.340Z,100241.31
2022-07-30T04:37:58.074Z,100245.09
2022-07-30T04:43:01.575Z,100254.66
2022-07-30T04:48:06.599Z,100269.88
2022-07-30T04:53:27.709Z,100274.59
2022-07-30T04:58:34.637Z,100274.72
2022-07-30T05:03:39.844Z,100282.84
2022-07-30T05:08:42.802Z,100296.50
2022-07-30T05:13:48.772Z,100300.34
2022-07-30T05:18:57.171Z,100300.34
2022-07-30T05:24:00.096Z,100301.38
2022-07-30T05:29:19.903Z,100314.88
2022-07-30T05:34:36.922Z,100315.72
2022-07-30T05:39:40.962Z,100315.03
2022-07-30T05:45:27.973Z,100316.19
2022-07-30T05:50:32.262Z,100324.00
2022-07-30T05:55:35.574Z,100334.81
2022-07-30T06:00:57.753Z,100331.41
2022-07-30T06:06:06.297Z,100331.09
2022-07-30T06:11:09.833Z,100330.25
2022-07-30T06:16:15.478Z,100329.25
2022-07-30T06:21:19.881Z,100327.56
2022-07-30T06:26:41.895Z,100331.41
2022-07-30T06:31:46.215Z,100326.88
2022-07-30T06:36:50.441Z,100330.09
2022-07-30T06:41:57.006Z,100337.69
2022-07-30T06:47:07.816Z,100339.53
2022-07-30T06:52:18.352Z,100348.19
2022-07-30T06:57:25.226Z,100353.59
2022-07-30T07:02:28.740Z,100355.06
2022-07-30T07:07:58.172Z,100354.91
2022-07-30T07:13:03.698Z,100346.28
2022-07-30T07:18:12.565Z,100354.31
2022-07-30T07:23:19.919Z,100360.00
2022-07-30T07:28:33.214Z,100363.72
2022-07-30T07:33:36.977Z,100366.34
2022-07-30T07:38:41.187Z,100364.94
2022-07-30T07:43:44.161Z,100368.06
2022-07-30T07:48:51.894Z,100373.91
2022-07-30T07:54:20.545Z,100373.88
2022-07-30T07:59:36.010Z,100375.28
2022-07-30T08:04:46.651Z,100370.63
2022-07-30T08:09:50.869Z,100374.81
2022-07-30T08:15:03.109Z,100381.91
2022-07-30T08:20:25.000Z,100390.38
2022-07-30T08:25:29.595Z,100385.16
2022-07-30T08:30:32.551Z,100398.03
2022-07-30T08:35:36.285Z,100404.38
2022-07-30T08:40:47.804Z,100407.84
2022-07-30T08:45:51.944Z,100419.16
2022-07-30T08:51:08.054Z,100421.91
2022-07-30T08:56:12.683Z,100436.47
2022-07-30T09:01:15.937Z,100430.44
2022-07-30T09:06:18.720Z,100443.25
2022-07-30T09:11:22.847Z,100451.88
2022-07-30T09:16:27.396Z,100441.78
2022-07-30T09:21:32.848Z,100442.41
2022-07-30T09:27:01.384Z,100444.03
2022-07-30T09:32:22.994Z,100442.66
2022-07-30T09:37:44.204Z,100452.38
2022-07-30T09:43:24.475Z,100446.47
2022-07-30T09:48:33.364Z,100447.78
2022-07-30T09:53:37.179Z,100453.03
2022-07-30T09:58:45.624Z,100461.94
2022-07-30T10:03:50.237Z,100464.00
2022-07-30T10:09:13.852Z,100466.06
2022-07-30T10:14:24.009Z,100465.50
2022-07-30T10:19:39.943Z,100467.56
2022-07-30T10:25:03.424Z,100469.25
2022-07-30T10:30:29.456Z,100462.91
2022-07-30T10:35:37.951Z,100474.91
2022-07-30T10:40:43.540Z,100470.16
2022-07-30T10:45:51.507Z,100468.00
2022-07-30T10:50:55.237Z,100463.84
2022-07-30T10:56:11.897Z,100463.09
2022-07-30T11:01:18.546Z,100458.59
2022-07-30T11:06:28.443Z,100470.38
2022-07-30T11:12:01.584Z,100472.84
2022-07-30T11:17:08.739Z,100464.72
2022-07-30T11:22:25.619Z,100466.63
2022-07-30T11:27:38.992Z,100470.69
2022-07-30T11:32:45.925Z,100471.47
2022-07-30T11:38:02.201Z,100477.91
2022-07-30T11:43:34.999Z,100473.63
2022-07-30T11:48:42.825Z,100483.91
2022-07-30T11:53:46.089Z,100465.34
2022-07-30T11:58:48.963Z,100475.72
2022-07-30T12:03:53.107Z,100472.50
2022-07-30T12:08:58.674Z,100478.81
2022-07-30T12:14:02.184Z,100477.22
2022-07-30T12:19:09.612Z,100478.25
2022-07-30T12:24:12.542Z,100484.34
2022-07-30T12:29:15.548Z,100481.31
2022-07-30T12:34:23.241Z,100470.88
2022-07-30T12:39:27.953Z,100474.84
2022-07-30T12:44:40.609Z,100475.06
2022-07-30T12:49:49.452Z,100474.28
2022-07-30T12:55:06.563Z,100473.53
2022-07-30T13:00:10.563Z,100476.09
2022-07-30T13:05:14.672Z,100471.81
2022-07-30T13:10:18.818Z,100479.00
2022-07-30T13:15:22.065Z,100472.66
2022-07-30T13:20:26.446Z,100474.41
2022-07-30T13:25:38.819Z,100478.84
2022-07-30T13:30:43.424Z,100478.69
2022-07-30T13:35:47.542Z,100478.47
2022-07-30T13:40:50.443Z,100479.09
2022-07-30T13:45:53.340Z,100480.66
2022-07-30T13:50:57.547Z,100479.69
2022-07-30T13:56:00.390Z,100482.38
2022-07-30T14:01:03.229Z,100484.50
2022-07-30T14:06:10.828Z,100480.22
2022-07-30T14:11:14.170Z,100480.34
2022-07-30T14:16:35.699Z,100486.44
2022-07-30T14:21:41.910Z,100473.63
2022-07-30T14:26:44.671Z,100471.88
2022-07-30T14:31:47.437Z,100477.97
2022-07-30T14:36:51.715Z,100479.69
2022-07-30T14:41:55.914Z,100474.56
2022-07-30T14:46:58.912Z,100470.34
2022-07-30T14:52:03.043Z,100465.38
2022-07-30T14:57:08.536Z,100468.63
2022-07-30T15:02:11.640Z,100471.19
2022-07-30T15:07:15.896Z,100467.66
2022-07-30T15:12:26.570Z,100470.47
2022-07-30T15:17:29.860Z,100473.25
2022-07-30T15:22:34.060Z,100476.38
2022-07-30T15:27:37.013Z,100471.94
2022-07-30T15:32:39.986Z,100474.53
2022-07-30T15:37:44.095Z,100478.56
2022-07-30T15:42:46.841Z,100478.00
2022-07-30T15:47:49.725Z,100477.75
2022-07-30T15:52:54.133Z,100477.88
2022-07-30T15:57:57.518Z,100468.34
2022-07-30T16:03:00.315Z,100471.31
2022-07-30T16:08:04.495Z,100476.81
2022-07-30T16:13:07.393Z,100475.03
2022-07-30T16:18:10.383Z,100469.78
2022-07-30T16:23:18.238Z,100463.38
2022-07-30T16:28:23.990Z,100472.00
2022-07-30T16:33:26.948Z,100472.97
2022-07-30T16:38:31.117Z,100470.16
2022-07-30T16:43:34.112Z,100475.56
2022-07-30T16:48:37.606Z,100475.53
2022-07-30T16:53:41.723Z,100480.16
2022-07-30T16:58:44.730Z,100479.69
2022-07-30T17:03:47.487Z,100482.50
2022-07-30T17:08:51.642Z,100485.06
2022-07-30T17:13:54.482Z,100478.69
2022-07-30T17:18:57.339Z,100489.06
2022-07-30T17:24:01.679Z,100492.63
2022-07-30T17:29:04.490Z,100496.59
2022-07-30T17:34:08.884Z,100486.41
2022-07-30T17:39:18.163Z,100494.91
2022-07-30T17:44:35.951Z,100485.44
2022-07-30T17:49:38.878Z,100487.78
2022-07-30T17:54:43.339Z,100497.59
2022-07-30T17:59:46.168Z,100488.81
2022-07-30T18:04:52.166Z,100483.19
2022-07-30T18:10:00.088Z,100485.50
2022-07-30T18:15:02.926Z,100484.94
2022-07-30T18:20:06.970Z,100487.63
2022-07-30T18:25:18.857Z,100493.75
2022-07-30T18:30:22.268Z,100491.91
2022-07-30T18:35:25.122Z,100493.88
2022-07-30T18:40:29.486Z,100493.75
2022-07-30T18:45:36.865Z,100493.75
2022-07-30T18:50:40.242Z,100502.72
2022-07-30T18:55:44.453Z,100494.88
2022-07-30T19:00:47.323Z,100510.06
2022-07-30T19:05:50.213Z,100517.94
2022-07-30T19:10:54.403Z,100518.81
2022-07-30T19:15:57.262Z,100514.41
2022-07-30T19:21:00.261Z,100512.25
2022-07-30T19:26:05.897Z,100502.16
2022-07-30T19:31:08.746Z,100513.81
2022-07-30T19:36:12.830Z,100516.50
2022-07-30T19:41:16.960Z,100523.75
2022-07-30T19:46:21.693Z,100522.66
2022-07-30T19:52:10.707Z,100528.91
2022-07-30T19:56:51.171Z,100524.50
2022-07-30T20:01:55.702Z,100530.47
2022-07-30T20:07:00.047Z,100539.25
2022-07-30T20:12:04.638Z,100530.00
2022-07-30T20:17:08.081Z,100531.72
2022-07-30T20:22:11.218Z,100530.88
2022-07-30T20:27:35.995Z,100528.59
2022-07-30T20:38:05.018Z,100526.03
2022-07-30T20:43:11.706Z,100519.63
2022-07-30T20:48:17.315Z,100523.19
2022-07-30T20:53:33.711Z,100524.88
2022-07-30T20:58:41.048Z,100525.44
2022-07-30T21:03:44.094Z,100530.84
2022-07-30T21:08:51.071Z,100531.00
2022-07-30T21:13:56.053Z,100520.19
2022-07-30T21:18:58.847Z,100519.78
2022-07-30T21:24:01.652Z,100519.91
2022-07-30T21:29:08.208Z,100521.63
2022-07-30T21:34:11.095Z,100518.78
2022-07-30T21:39:14.535Z,100519.63
2022-07-30T21:44:18.649Z,100529.72
2022-07-30T21:49:21.522Z,100525.31
2022-07-30T21:59:48.382Z,100516.16
2022-07-30T22:04:51.146Z,100522.72
2022-07-30T22:09:53.898Z,100519.88
2022-07-30T22:14:58.025Z,100516.59
2022-07-30T22:20:00.867Z,100514.19
2022-07-30T22:25:09.431Z,100515.75
2022-07-30T22:30:14.516Z,100521.63
2022-07-30T22:35:17.258Z,100518.63
2022-07-30T22:40:24.703Z,100514.78
2022-07-30T22:45:47.422Z,100510.53
2022-07-30T22:50:52.101Z,100513.94
2022-07-30T22:55:55.537Z,100513.41
2022-07-30T23:01:00.228Z,100516.41
2022-07-30T23:06:03.087Z,100517.34
2022-07-30T23:11:06.071Z,100499.56
2022-07-30T23:12:18.142Z,100532.59
2022-07-30T23:12:32.859Z,100515.47
2022-07-30T23:16:10.571Z,100507.69
2022-07-30T23:21:13.364Z,100509.38
2022-07-30T23:26:16.206Z,100514.78
2022-07-30T23:31:22.970Z,100513.69
2022-07-30T23:36:29.199Z,100517.47
2022-07-30T23:41:31.916Z,100522.50
2022-07-30T23:46:37.103Z,100519.09
2022-07-30T23:51:39.935Z,100523.50
2022-07-30T23:56:42.801Z,100523.75
